createdAt,value
2018-06-28T00:01:34.340Z,3.10
2018-06-28T00:04:03.812Z,3.23
2018-06-28T00:06:32.785Z,2.40
2018-06-28T00:09:01.508Z,2.70
2018-06-28T00:11:29.854Z,2.63
2018-06-28T00:13:58.624Z,3.43
2018-06-28T00:16:27.451Z,3.37
2018-06-28T00:18:56.193Z,2.87
2018-06-28T00:21:24.833Z,2.47
2018-06-28T00:23:53.630Z,2.93
2018-06-28T00:26:22.564Z,3.07
2018-06-28T00:28:51.321Z,2.97
2018-06-28T00:31:20.024Z,2.57
2018-06-28T00:33:48.895Z,2.50
2018-06-28T00:36:17.713Z,2.80
2018-06-28T00:38:46.363Z,2.67
2018-06-28T00:41:15.235Z,2.37
2018-06-28T00:43:44.686Z,2.73
2018-06-28T00:46:13.200Z,2.57
2018-06-28T00:48:41.874Z,2.73
2018-06-28T00:51:10.733Z,2.50
2018-06-28T00:53:39.595Z,2.57
2018-06-28T00:56:08.211Z,2.70
2018-06-28T00:58:36.912Z,2.83
2018-06-28T01:01:05.914Z,2.57
2018-06-28T01:03:34.759Z,3.90
2018-06-28T01:06:03.435Z,2.87
2018-06-28T01:08:32.027Z,2.47
2018-06-28T01:11:00.739Z,2.83
2018-06-28T01:13:29.473Z,3.20
2018-06-28T01:15:58.160Z,2.97
2018-06-28T01:18:26.767Z,5.03
2018-06-28T01:20:55.384Z,2.40
2018-06-28T01:23:23.961Z,3.47
2018-06-28T01:25:52.827Z,2.90
2018-06-28T01:28:21.773Z,5.07
2018-06-28T01:30:50.348Z,2.53
2018-06-28T01:33:19.297Z,3.73
2018-06-28T01:35:47.866Z,3.37
2018-06-28T01:38:16.472Z,3.03
2018-06-28T01:40:45.306Z,3.80
2018-06-28T01:43:31.923Z,2.73
2018-06-28T01:46:00.937Z,3.40
2018-06-28T01:48:29.651Z,3.00
2018-06-28T01:50:58.775Z,3.33
2018-06-28T01:53:27.958Z,2.80
2018-06-28T01:55:56.769Z,3.77
2018-06-28T01:58:25.371Z,3.40
2018-06-28T02:00:54.016Z,4.77
2018-06-28T02:03:22.617Z,4.90
2018-06-28T02:05:53.068Z,3.17
2018-06-28T02:08:22.023Z,3.60
2018-06-28T02:10:50.688Z,3.97
2018-06-28T02:13:19.721Z,3.43
2018-06-28T02:15:48.389Z,3.73
2018-06-28T02:18:17.151Z,2.97
2018-06-28T02:20:45.780Z,3.10
2018-06-28T02:23:14.372Z,3.00
2018-06-28T02:25:43.047Z,3.10
2018-06-28T02:28:12.463Z,8.80
2018-06-28T02:30:41.596Z,3.30
2018-06-28T02:33:10.899Z,3.33
2018-06-28T02:35:39.453Z,4.03
2018-06-28T02:38:08.389Z,3.57
2018-06-28T02:40:37.007Z,5.23
2018-06-28T02:43:05.758Z,3.33
2018-06-28T02:45:34.398Z,3.10
2018-06-28T02:48:02.970Z,3.47
2018-06-28T02:50:31.910Z,3.23
2018-06-28T02:53:00.560Z,3.20
2018-06-28T02:55:29.303Z,3.27
2018-06-28T02:57:57.828Z,3.33
2018-06-28T03:00:26.488Z,3.17
2018-06-28T03:02:55.088Z,3.37
2018-06-28T03:05:23.646Z,3.30
2018-06-28T03:07:52.227Z,2.93
2018-06-28T03:10:20.752Z,3.67
2018-06-28T03:12:49.387Z,3.53
2018-06-28T03:15:18.805Z,3.57
2018-06-28T03:17:47.376Z,3.10
2018-06-28T03:20:15.969Z,4.03
2018-06-28T03:22:44.667Z,4.93
2018-06-28T03:25:13.472Z,3.43
2018-06-28T03:27:42.248Z,3.70
2018-06-28T03:30:10.848Z,3.27
2018-06-28T03:32:39.736Z,3.23
2018-06-28T03:35:08.558Z,3.53
2018-06-28T03:37:37.445Z,3.20
2018-06-28T03:40:06.612Z,3.17
2018-06-28T03:42:35.281Z,5.50
2018-06-28T03:45:04.579Z,3.90
2018-06-28T03:47:33.300Z,3.47
2018-06-28T03:50:01.819Z,3.23
2018-06-28T03:52:30.459Z,3.73
2018-06-28T03:54:59.271Z,4.40
2018-06-28T03:57:28.026Z,3.73
2018-06-28T03:59:56.901Z,3.50
2018-06-28T04:02:25.458Z,4.93
2018-06-28T04:04:54.073Z,3.17
2018-06-28T04:07:22.750Z,3.73
2018-06-28T04:09:51.796Z,3.53
2018-06-28T04:12:20.435Z,3.93
2018-06-28T04:14:49.142Z,3.60
2018-06-28T04:17:18.682Z,6.97
2018-06-28T04:19:47.122Z,4.60
2018-06-28T04:22:27.704Z,3.70
2018-06-28T04:24:56.854Z,4.00
2018-06-28T04:27:26.561Z,3.97
2018-06-28T04:29:55.163Z,4.60
2018-06-28T04:32:24.464Z,3.77
2018-06-28T04:34:53.369Z,3.73
2018-06-28T04:37:22.308Z,3.97
2018-06-28T04:39:51.455Z,3.93
2018-06-28T04:42:20.399Z,4.13
2018-06-28T04:44:49.893Z,10.37
2018-06-28T04:47:18.509Z,7.40
2018-06-28T04:49:47.617Z,5.30
2018-06-28T04:52:17.484Z,7.77
2018-06-28T04:54:46.017Z,4.90
2018-06-28T04:57:14.669Z,5.80
2018-06-28T04:59:43.328Z,4.80
2018-06-28T05:02:12.478Z,5.20
2018-06-28T05:04:41.479Z,5.00
2018-06-28T05:07:10.310Z,5.20
2018-06-28T05:09:39.476Z,5.87
2018-06-28T05:12:08.410Z,5.97
2018-06-28T05:14:37.643Z,5.03
2018-06-28T05:17:06.444Z,5.23
2018-06-28T05:19:35.541Z,4.93
2018-06-28T05:22:04.187Z,5.07
2018-06-28T05:24:33.528Z,5.00
2018-06-28T05:27:03.054Z,6.63
2018-06-28T05:29:32.437Z,5.33
2018-06-28T05:32:03.772Z,5.30
2018-06-28T05:34:33.014Z,5.80
2018-06-28T05:37:02.158Z,5.53
2018-06-28T05:39:31.178Z,5.63
2018-06-28T05:42:00.477Z,5.20
2018-06-28T05:44:29.307Z,5.50
2018-06-28T05:46:58.503Z,5.07
2018-06-28T05:49:28.114Z,5.60
2018-06-28T05:51:58.321Z,6.03
2018-06-28T05:54:28.116Z,5.90
2018-06-28T05:56:56.576Z,5.47
2018-06-28T05:59:25.760Z,6.43
2018-06-28T06:01:55.103Z,6.17
2018-06-28T06:04:24.608Z,5.37
2018-06-28T06:06:55.909Z,9.63
2018-06-28T06:09:24.902Z,10.40
2018-06-28T06:11:54.446Z,12.57
2018-06-28T06:14:24.679Z,6.93
2018-06-28T06:16:53.779Z,7.90
2018-06-28T06:19:24.317Z,6.17
2018-06-28T06:21:55.132Z,5.50
2018-06-28T06:24:26.684Z,5.53
2018-06-28T06:26:56.068Z,5.20
2018-06-28T06:29:24.839Z,4.77
2018-06-28T06:31:54.075Z,7.90
2018-06-28T06:34:24.094Z,16.97
2018-06-28T06:36:53.513Z,7.93
2018-06-28T06:39:23.175Z,4.67
2018-06-28T06:41:51.808Z,7.17
2018-06-28T06:44:20.599Z,5.00
2018-06-28T06:46:50.521Z,4.73
2018-06-28T06:49:19.359Z,5.43
2018-06-28T06:51:48.865Z,5.03
2018-06-28T06:54:17.952Z,5.63
2018-06-28T06:56:47.008Z,5.97
2018-06-28T06:59:15.972Z,5.33
2018-06-28T07:01:45.480Z,4.67
2018-06-28T07:04:15.812Z,4.00
2018-06-28T07:06:44.664Z,5.87
2018-06-28T07:09:13.927Z,7.17
2018-06-28T07:11:42.639Z,7.60
2018-06-28T07:14:11.781Z,3.97
2018-06-28T07:16:41.189Z,11.17
2018-06-28T07:19:10.598Z,4.80
2018-06-28T07:21:39.575Z,5.00
2018-06-28T07:24:09.248Z,7.63
2018-06-28T07:26:38.047Z,6.97
2018-06-28T07:29:08.155Z,7.03
2018-06-28T07:31:37.761Z,4.90
2018-06-28T07:34:07.044Z,4.53
2018-06-28T07:36:36.016Z,3.90
2018-06-28T07:39:08.549Z,4.50
2018-06-28T07:41:38.606Z,4.73
2018-06-28T07:44:08.194Z,8.07
2018-06-28T07:46:37.722Z,4.50
2018-06-28T07:49:07.170Z,4.80
2018-06-28T07:51:35.912Z,6.73
2018-06-28T07:54:04.621Z,8.13
2018-06-28T07:56:35.252Z,4.60
2018-06-28T07:59:04.025Z,5.40
2018-06-28T08:01:32.672Z,4.33
2018-06-28T08:04:01.360Z,4.07
2018-06-28T08:06:30.190Z,4.70
2018-06-28T08:08:59.697Z,4.47
2018-06-28T08:11:28.535Z,4.73
2018-06-28T08:13:57.132Z,4.77
2018-06-28T08:16:25.990Z,5.53
2018-06-28T08:18:55.631Z,4.83
2018-06-28T08:21:24.455Z,7.30
2018-06-28T08:23:53.926Z,5.10
2018-06-28T08:26:23.813Z,4.43
2018-06-28T08:28:52.403Z,9.97
2018-06-28T08:31:21.296Z,4.33
2018-06-28T08:33:50.452Z,4.90
2018-06-28T08:36:20.611Z,5.10
2018-06-28T08:38:50.218Z,5.67
2018-06-28T08:41:19.433Z,4.87
2018-06-28T08:43:48.375Z,4.73
2018-06-28T08:46:18.403Z,5.93
2018-06-28T08:48:47.343Z,6.27
2018-06-28T08:51:16.252Z,5.97
2018-06-28T08:53:44.801Z,6.07
2018-06-28T08:56:13.735Z,9.20
2018-06-28T08:58:42.731Z,5.20
2018-06-28T09:01:11.641Z,4.97
2018-06-28T09:03:40.399Z,4.73
2018-06-28T09:06:09.438Z,5.40
2018-06-28T09:08:38.719Z,4.60
2018-06-28T09:11:08.178Z,4.43
2018-06-28T09:13:37.351Z,4.43
2018-06-28T09:16:06.843Z,4.03
2018-06-28T09:18:35.517Z,4.10
2018-06-28T09:21:04.152Z,4.27
2018-06-28T09:23:32.709Z,6.50
2018-06-28T09:26:01.373Z,4.07
2018-06-28T09:28:30.048Z,5.40
2018-06-28T09:30:58.646Z,5.50
2018-06-28T09:33:27.655Z,5.00
2018-06-28T09:35:56.509Z,5.17
2018-06-28T09:38:25.017Z,4.07
2018-06-28T09:40:53.593Z,3.97
2018-06-28T09:43:21.810Z,5.27
2018-06-28T09:45:51.063Z,4.20
2018-06-28T09:48:19.840Z,3.80
2018-06-28T09:50:48.647Z,5.40
2018-06-28T09:53:16.973Z,4.30
2018-06-28T09:55:47.499Z,5.27
2018-06-28T09:58:18.802Z,6.00
2018-06-28T10:00:47.790Z,4.57
2018-06-28T10:03:17.803Z,3.47
2018-06-28T10:05:46.795Z,4.23
2018-06-28T10:08:15.875Z,5.03
2018-06-28T10:10:44.635Z,5.17
2018-06-28T10:13:14.300Z,4.97
2018-06-28T10:15:43.579Z,4.20
2018-06-28T10:18:12.755Z,4.17
2018-06-28T10:20:41.251Z,8.90
2018-06-28T10:23:10.291Z,4.97
2018-06-28T10:25:39.028Z,4.77
2018-06-28T10:28:08.239Z,4.37
2018-06-28T10:30:36.888Z,6.90
2018-06-28T10:33:05.612Z,5.67
2018-06-28T10:35:35.185Z,4.43
2018-06-28T10:38:04.681Z,4.23
2018-06-28T10:40:33.823Z,5.33
2018-06-28T10:43:03.239Z,4.27
2018-06-28T10:45:32.104Z,5.07
2018-06-28T10:48:00.984Z,4.13
2018-06-28T10:50:30.268Z,8.93
2018-06-28T10:52:58.952Z,5.23
2018-06-28T10:55:27.517Z,6.10
2018-06-28T10:57:56.244Z,8.67
2018-06-28T11:00:24.868Z,6.30
2018-06-28T11:02:53.910Z,5.77
2018-06-28T11:05:22.989Z,4.47
2018-06-28T11:07:51.993Z,8.97
2018-06-28T11:10:20.786Z,4.43
2018-06-28T11:12:50.270Z,5.57
2018-06-28T11:15:19.127Z,4.83
2018-06-28T11:17:47.925Z,4.60
2018-06-28T11:20:17.525Z,7.10
2018-06-28T11:22:46.213Z,3.83
2018-06-28T11:25:14.852Z,4.03
2018-06-28T11:27:43.545Z,6.03
2018-06-28T11:30:12.633Z,4.67
2018-06-28T11:32:42.122Z,3.90
2018-06-28T11:35:10.836Z,4.97
2018-06-28T11:37:39.715Z,4.40
2018-06-28T11:40:08.466Z,5.00
2018-06-28T11:42:38.208Z,4.30
2018-06-28T11:45:08.824Z,4.03
2018-06-28T11:47:37.643Z,8.90
2018-06-28T11:50:06.286Z,4.13
2018-06-28T11:52:35.839Z,4.77
2018-06-28T11:55:04.827Z,4.67
2018-06-28T11:57:33.672Z,4.40
2018-06-28T12:00:02.705Z,4.90
2018-06-28T12:02:32.138Z,4.40
2018-06-28T12:05:01.867Z,7.23
2018-06-28T12:07:31.951Z,5.47
2018-06-28T12:10:00.778Z,8.10
2018-06-28T12:12:29.311Z,4.97
2018-06-28T12:14:58.560Z,4.30
2018-06-28T12:17:26.813Z,4.63
2018-06-28T12:19:55.847Z,5.10
2018-06-28T12:22:25.059Z,5.40
2018-06-28T12:24:54.303Z,4.17
2018-06-28T12:27:23.188Z,4.47
2018-06-28T12:29:51.434Z,4.53
2018-06-28T12:32:20.281Z,5.27
2018-06-28T12:34:49.052Z,4.53
2018-06-28T12:37:18.701Z,5.53
2018-06-28T12:39:47.988Z,4.87
2018-06-28T12:42:16.634Z,6.63
2018-06-28T12:44:45.269Z,5.10
2018-06-28T12:47:52.697Z,3.97
2018-06-28T12:50:21.608Z,4.53
2018-06-28T12:53:06.564Z,4.70
2018-06-28T12:56:44.152Z,4.00
2018-06-28T12:59:15.129Z,5.27
2018-06-28T13:01:44.631Z,5.37
2018-06-28T13:04:13.347Z,5.33
2018-06-28T13:06:43.164Z,35.70
2018-06-28T13:09:13.534Z,22.13
2018-06-28T13:11:43.015Z,24.67
2018-06-28T13:14:12.005Z,21.73
2018-06-28T13:16:40.688Z,17.43
2018-06-28T13:19:10.179Z,12.47
2018-06-28T13:21:38.829Z,7.87
2018-06-28T13:24:07.986Z,8.97
2018-06-28T13:26:36.888Z,12.03
2018-06-28T13:29:05.571Z,12.40
2018-06-28T13:31:34.276Z,8.70
2018-06-28T13:34:03.657Z,9.23
2018-06-28T13:36:32.332Z,10.30
2018-06-28T13:39:01.681Z,10.93
2018-06-28T13:41:30.821Z,11.37
2018-06-28T13:43:59.739Z,10.53
2018-06-28T13:46:29.127Z,10.37
2018-06-28T13:48:57.775Z,10.10
2018-06-28T13:51:26.409Z,10.47
2018-06-28T13:53:56.915Z,15.47
2018-06-28T13:56:25.831Z,12.53
2018-06-28T13:58:54.829Z,11.77
2018-06-28T14:01:23.622Z,11.10
2018-06-28T14:03:52.331Z,10.87
2018-06-28T14:06:21.079Z,9.27
2018-06-28T14:08:50.495Z,9.17
2018-06-28T14:11:19.163Z,10.43
2018-06-28T14:13:47.865Z,10.80
2018-06-28T14:16:16.500Z,10.80
2018-06-28T14:18:45.155Z,10.90
2018-06-28T14:21:13.860Z,9.70
2018-06-28T14:23:43.238Z,9.40
2018-06-28T14:26:12.303Z,10.70
2018-06-28T14:28:41.077Z,10.80
2018-06-28T14:31:10.356Z,10.63
2018-06-28T14:33:39.073Z,10.03
2018-06-28T14:36:07.705Z,10.33
2018-06-28T14:38:36.503Z,11.60
2018-06-28T14:41:06.081Z,11.43
2018-06-28T14:43:34.789Z,11.40
2018-06-28T14:46:03.452Z,10.23
2018-06-28T14:48:32.208Z,12.40
2018-06-28T14:51:00.519Z,13.37
2018-06-28T14:53:29.481Z,10.37
2018-06-28T14:55:58.024Z,10.83
2018-06-28T14:58:27.890Z,11.17
2018-06-28T15:00:57.307Z,13.17
2018-06-28T15:03:26.056Z,11.30
2018-06-28T15:05:54.678Z,12.37
2018-06-28T15:08:23.364Z,12.23
2018-06-28T15:10:52.439Z,15.40
2018-06-28T15:13:21.555Z,13.20
2018-06-28T15:15:51.010Z,13.10
2018-06-28T15:18:20.006Z,13.17
2018-06-28T15:20:49.035Z,12.53
2018-06-28T15:23:18.064Z,11.53
2018-06-28T15:25:47.147Z,11.83
2018-06-28T15:28:15.842Z,12.83
2018-06-28T15:30:45.418Z,10.87
2018-06-28T15:33:14.731Z,10.43
2018-06-28T15:35:43.473Z,10.50
2018-06-28T15:38:12.372Z,10.37
2018-06-28T15:40:41.078Z,9.90
2018-06-28T15:43:10.116Z,10.90
2018-06-28T15:45:38.752Z,11.87
2018-06-28T15:48:08.181Z,11.70
2018-06-28T15:50:36.833Z,11.83
2018-06-28T15:53:05.538Z,10.23
2018-06-28T15:55:34.504Z,11.27
2018-06-28T15:58:03.783Z,11.93
2018-06-28T16:00:33.078Z,11.80
2018-06-28T16:03:02.067Z,12.67
2018-06-28T16:05:30.794Z,12.73
2018-06-28T16:08:00.124Z,15.93
2018-06-28T16:10:29.021Z,12.33
2018-06-28T16:12:58.938Z,12.63
2018-06-28T16:15:27.761Z,11.83
2018-06-28T16:17:56.671Z,11.90
2018-06-28T16:20:25.627Z,12.60
2018-06-28T16:22:55.242Z,12.00
2018-06-28T16:25:24.331Z,12.07
2018-06-28T16:27:53.167Z,13.20
2018-06-28T16:30:21.883Z,12.20
2018-06-28T16:32:51.195Z,12.83
2018-06-28T16:35:19.954Z,14.20
2018-06-28T16:37:48.603Z,13.40
2018-06-28T16:40:17.296Z,13.00
2018-06-28T16:42:46.108Z,11.93
2018-06-28T16:45:14.902Z,14.43
2018-06-28T16:47:44.229Z,12.97
2018-06-28T16:50:12.916Z,15.60
2018-06-28T16:52:41.912Z,13.40
2018-06-28T16:55:11.007Z,13.00
2018-06-28T16:57:40.342Z,13.73
2018-06-28T17:00:09.402Z,16.23
2018-06-28T17:02:38.275Z,44.97
2018-06-28T17:05:06.898Z,44.93
2018-06-28T17:07:35.631Z,28.17
2018-06-28T17:10:04.985Z,14.37
2018-06-28T17:12:33.603Z,10.87
2018-06-28T17:15:02.340Z,9.07
2018-06-28T17:17:31.555Z,9.30
2018-06-28T17:20:00.382Z,8.27
2018-06-28T17:22:29.917Z,7.93
2018-06-28T17:24:59.076Z,8.33
2018-06-28T17:27:27.722Z,9.07
2018-06-28T17:29:56.797Z,10.60
2018-06-28T17:32:26.404Z,9.93
2018-06-28T17:34:56.675Z,11.43
2018-06-28T17:37:25.469Z,11.10
2018-06-28T17:39:55.878Z,9.63
2018-06-28T17:42:24.632Z,10.53
2018-06-28T17:44:53.643Z,12.03
2018-06-28T17:47:22.399Z,12.80
2018-06-28T17:49:51.492Z,13.07
2018-06-28T17:52:20.436Z,11.20
2018-06-28T17:54:49.051Z,11.63
2018-06-28T17:57:18.743Z,12.00
2018-06-28T17:59:47.457Z,11.43
2018-06-28T18:02:16.760Z,11.30
2018-06-28T18:04:45.054Z,11.13
2018-06-28T18:07:13.685Z,11.10
2018-06-28T18:09:42.992Z,10.73
2018-06-28T18:12:12.266Z,9.63
2018-06-28T18:14:40.853Z,11.23
2018-06-28T18:17:09.863Z,9.77
2018-06-28T18:19:38.700Z,9.97
2018-06-28T18:22:07.715Z,9.57
2018-06-28T18:24:36.839Z,9.13
2018-06-28T18:27:05.540Z,9.30
2018-06-28T18:29:34.928Z,8.83
2018-06-28T18:32:04.232Z,9.83
2018-06-28T18:34:33.055Z,8.83
2018-06-28T18:37:02.027Z,9.87
2018-06-28T18:39:31.401Z,9.00
2018-06-28T18:42:00.345Z,10.23
2018-06-28T18:44:29.287Z,9.27
2018-06-28T18:46:58.309Z,8.60
2018-06-28T18:49:27.135Z,9.73
2018-06-28T18:51:55.962Z,14.20
2018-06-28T18:54:24.985Z,8.73
2018-06-28T18:56:54.008Z,9.03
2018-06-28T18:59:22.706Z,8.80
2018-06-28T19:01:51.336Z,8.30
2018-06-28T19:04:20.419Z,9.60
2018-06-28T19:06:49.294Z,8.93
2018-06-28T19:09:18.798Z,9.00
2018-06-28T19:11:47.444Z,9.80
2018-06-28T19:14:21.807Z,9.20
2018-06-28T19:16:56.125Z,9.07
2018-06-28T19:19:25.191Z,8.83
2018-06-28T19:21:58.902Z,9.60
2018-06-28T19:24:27.999Z,9.03
2018-06-28T19:26:56.827Z,9.17
2018-06-28T19:29:30.682Z,9.63
2018-06-28T19:32:04.620Z,9.23
2018-06-28T19:34:33.199Z,13.90
2018-06-28T19:37:03.020Z,10.13
2018-06-28T19:39:37.403Z,10.97
2018-06-28T19:42:11.662Z,10.30
2018-06-28T19:44:40.574Z,11.17
2018-06-28T19:47:09.238Z,12.13
2018-06-28T19:49:43.378Z,10.50
2018-06-28T19:52:17.280Z,10.70
2018-06-28T19:54:46.247Z,11.17
2018-06-28T19:57:15.038Z,13.97
2018-06-28T19:59:48.019Z,11.27
2018-06-28T20:02:22.478Z,11.80
2018-06-28T20:04:51.235Z,9.90
2018-06-28T20:07:20.743Z,10.40
2018-06-28T20:09:49.423Z,9.57
2018-06-28T20:12:23.410Z,9.47
2018-06-28T20:14:57.658Z,11.03
2018-06-28T20:17:31.408Z,9.43
2018-06-28T20:20:19.255Z,9.80
2018-06-28T20:22:48.078Z,9.57
2018-06-28T20:25:16.778Z,8.43
2018-06-28T20:27:51.062Z,8.40
2018-06-28T20:30:24.908Z,8.77
2018-06-28T20:32:59.197Z,8.17
2018-06-28T20:35:27.852Z,7.97
2018-06-28T20:37:56.608Z,9.37
2018-06-28T20:40:25.224Z,9.33
2018-06-28T20:42:54.046Z,8.77
2018-06-28T20:45:22.614Z,9.40
2018-06-28T20:47:51.446Z,10.17
2018-06-28T20:50:20.146Z,8.00
2018-06-28T20:52:49.043Z,8.87
2018-06-28T20:55:17.636Z,8.70
2018-06-28T20:57:46.195Z,8.67
2018-06-28T21:00:14.811Z,9.37
2018-06-28T21:02:43.129Z,10.17
2018-06-28T21:05:11.666Z,9.60
2018-06-28T21:07:40.295Z,9.63
2018-06-28T21:10:08.997Z,9.57
2018-06-28T21:12:37.624Z,9.73
2018-06-28T21:15:06.284Z,9.73
2018-06-28T21:17:34.884Z,10.00
2018-06-28T21:20:03.922Z,9.07
2018-06-28T21:22:32.507Z,10.17
2018-06-28T21:25:01.164Z,9.97
2018-06-28T21:27:29.960Z,10.40
2018-06-28T21:29:58.639Z,9.53
2018-06-28T21:32:27.187Z,9.20
2018-06-28T21:34:56.004Z,14.17
2018-06-28T21:37:24.720Z,10.67
2018-06-28T21:39:53.653Z,10.33
2018-06-28T21:42:22.294Z,10.33
2018-06-28T21:44:51.520Z,10.50
2018-06-28T21:47:21.340Z,9.90
2018-06-28T21:49:49.941Z,9.77
2018-06-28T21:52:18.563Z,10.03
2018-06-28T21:54:47.142Z,9.97
2018-06-28T21:57:16.220Z,9.90
2018-06-28T21:59:44.883Z,10.50
2018-06-28T22:02:13.533Z,10.70
2018-06-28T22:04:42.343Z,9.50
2018-06-28T22:07:10.942Z,10.67
2018-06-28T22:09:39.738Z,10.73
2018-06-28T22:12:08.774Z,10.50
2018-06-28T22:14:37.529Z,10.00
2018-06-28T22:17:06.437Z,10.80
2018-06-28T22:19:35.276Z,10.80
2018-06-28T22:22:04.291Z,10.60
2018-06-28T22:24:33.160Z,10.77
2018-06-28T22:27:01.748Z,10.70
2018-06-28T22:29:30.379Z,10.10
2018-06-28T22:31:58.876Z,9.93
2018-06-28T22:34:27.858Z,10.37
2018-06-28T22:36:56.445Z,10.57
2018-06-28T22:39:25.074Z,10.60
2018-06-28T22:41:53.671Z,9.80
2018-06-28T22:44:22.202Z,10.07
2018-06-28T22:46:50.747Z,11.20
2018-06-28T22:49:19.271Z,9.60
2018-06-28T22:51:48.967Z,9.87
2018-06-28T22:54:17.531Z,11.33
2018-06-28T22:56:46.151Z,8.90
2018-06-28T22:59:14.746Z,10.77
2018-06-28T23:01:43.474Z,11.03
2018-06-28T23:04:12.163Z,10.60
2018-06-28T23:06:40.844Z,10.93
2018-06-28T23:09:09.672Z,10.37
2018-06-28T23:11:38.635Z,10.47
2018-06-28T23:14:07.367Z,14.70
2018-06-28T23:16:35.995Z,11.07
2018-06-28T23:19:04.655Z,10.37
2018-06-28T23:21:34.294Z,11.47
2018-06-28T23:24:02.962Z,11.20
2018-06-28T23:26:31.662Z,11.07
2018-06-28T23:29:00.355Z,11.23
2018-06-28T23:31:28.981Z,11.50
2018-06-28T23:33:57.219Z,11.47
2018-06-28T23:36:26.116Z,11.23
2018-06-28T23:38:54.779Z,11.80
2018-06-28T23:41:23.574Z,12.43
2018-06-28T23:43:52.487Z,10.97
2018-06-28T23:46:21.047Z,10.93
2018-06-28T23:48:49.762Z,14.00
2018-06-28T23:51:18.285Z,13.70
2018-06-28T23:53:46.916Z,12.53
2018-06-28T23:56:15.488Z,12.80
2018-06-28T23:58:44.071Z,12.47
